Hume, Missouri
Current Conditions -  °F | °C
As of 1:55 AM on Saturday 20 Dec 2014 (Local Time) from KPTS Reporting Station
Haze Haze  
Wind Chill: 38°   Ceiling: 600
Heat Index: 38°   Visibility: 4mi
Dew Point: 38°   Wind: 3mph
Humidity: 100%   Direction: 300°WNW
Pressure: 30.21"   Gusts: NA
Location:  38.09°N, 94.58°W
Report Text: KPTS 200755Z AUTO 30003KT 4SM BR OVC006 04/04 A3021 RMK AO2 T00350036
Loading
Personal Weather Stations






























Interactive Weather Map New forecast layout! Learn more

10-Day Weather Forecast

Advertisements
Track Severe Weather on mobile